sensor_id;sensor_type;location;lat;lon;timestamp;P1;durP1;ratioP1;P2;durP2;ratioP2
78148;SDS011;67396;42.664;23.382;2023-07-20T00:00:15;8.20;;;3.13;;
78148;SDS011;67396;42.664;23.382;2023-07-20T00:02:42;6.05;;;2.50;;
78148;SDS011;67396;42.664;23.382;2023-07-20T00:05:08;8.40;;;2.58;;
78148;SDS011;67396;42.664;23.382;2023-07-20T00:07:33;6.75;;;2.40;;
78148;SDS011;67396;42.664;23.382;2023-07-20T00:09:59;8.23;;;2.35;;
78148;SDS011;67396;42.664;23.382;2023-07-20T00:12:24;8.30;;;2.33;;
78148;SDS011;67396;42.664;23.382;2023-07-20T00:14:49;12.70;;;4.45;;
78148;SDS011;67396;42.664;23.382;2023-07-20T00:17:18;10.32;;;2.63;;
78148;SDS011;67396;42.664;23.382;2023-07-20T00:19:44;8.05;;;2.72;;
78148;SDS011;67396;42.664;23.382;2023-07-20T00:22:09;6.90;;;2.83;;
78148;SDS011;67396;42.664;23.382;2023-07-20T00:24:34;18.38;;;3.60;;
78148;SDS011;67396;42.664;23.382;2023-07-20T00:27:00;8.32;;;3.15;;
78148;SDS011;67396;42.664;23.382;2023-07-20T00:29:26;10.52;;;2.97;;
78148;SDS011;67396;42.664;23.382;2023-07-20T00:31:51;4.10;;;2.22;;
78148;SDS011;67396;42.664;23.382;2023-07-20T00:34:17;6.85;;;3.00;;
78148;SDS011;67396;42.664;23.382;2023-07-20T00:36:42;8.25;;;2.33;;
78148;SDS011;67396;42.664;23.382;2023-07-20T00:39:07;6.32;;;2.78;;
78148;SDS011;67396;42.664;23.382;2023-07-20T00:41:33;5.55;;;2.63;;
78148;SDS011;67396;42.664;23.382;2023-07-20T00:43:58;15.00;;;3.08;;
78148;SDS011;67396;42.664;23.382;2023-07-20T00:46:24;5.45;;;3.00;;
78148;SDS011;67396;42.664;23.382;2023-07-20T00:48:50;8.77;;;2.42;;
78148;SDS011;67396;42.664;23.382;2023-07-20T00:51:16;5.88;;;1.90;;
78148;SDS011;67396;42.664;23.382;2023-07-20T00:53:42;7.68;;;2.97;;
78148;SDS011;67396;42.664;23.382;2023-07-20T00:56:07;9.20;;;3.40;;
78148;SDS011;67396;42.664;23.382;2023-07-20T00:58:34;10.63;;;2.90;;
78148;SDS011;67396;42.664;23.382;2023-07-20T01:00:59;17.60;;;4.45;;
78148;SDS011;67396;42.664;23.382;2023-07-20T01:03:25;5.97;;;2.88;;
78148;SDS011;67396;42.664;23.382;2023-07-20T01:09:12;11.48;;;2.95;;
78148;SDS011;67396;42.664;23.382;2023-07-20T01:14:15;7.47;;;2.47;;
78148;SDS011;67396;42.664;23.382;2023-07-20T01:16:41;5.88;;;2.80;;
78148;SDS011;67396;42.664;23.382;2023-07-20T01:19:07;22.27;;;5.00;;
78148;SDS011;67396;42.664;23.382;2023-07-20T01:21:50;7.15;;;2.90;;
78148;SDS011;67396;42.664;23.382;2023-07-20T01:24:30;9.82;;;3.15;;
78148;SDS011;67396;42.664;23.382;2023-07-20T01:32:13;11.73;;;3.03;;
78148;SDS011;67396;42.664;23.382;2023-07-20T01:34:42;8.77;;;2.42;;
78148;SDS011;67396;42.664;23.382;2023-07-20T01:37:09;13.93;;;3.63;;
78148;SDS011;67396;42.664;23.382;2023-07-20T01:39:36;8.73;;;2.78;;
78148;SDS011;67396;42.664;23.382;2023-07-20T01:42:04;8.60;;;3.55;;
78148;SDS011;67396;42.664;23.382;2023-07-20T01:44:29;10.23;;;2.83;;
78148;SDS011;67396;42.664;23.382;2023-07-20T01:46:55;12.93;;;3.15;;
78148;SDS011;67396;42.664;23.382;2023-07-20T01:49:20;10.90;;;2.80;;
78148;SDS011;67396;42.664;23.382;2023-07-20T01:51:46;10.52;;;3.00;;
78148;SDS011;67396;42.664;23.382;2023-07-20T01:54:11;19.15;;;2.90;;
78148;SDS011;67396;42.664;23.382;2023-07-20T01:56:36;8.18;;;3.15;;
78148;SDS011;67396;42.664;23.382;2023-07-20T01:59:02;7.05;;;2.67;;
78148;SDS011;67396;42.664;23.382;2023-07-20T02:01:28;10.07;;;3.30;;
78148;SDS011;67396;42.664;23.382;2023-07-20T02:03:56;12.10;;;2.45;;
78148;SDS011;67396;42.664;23.382;2023-07-20T02:06:21;11.90;;;5.00;;
78148;SDS011;67396;42.664;23.382;2023-07-20T02:08:47;12.27;;;3.67;;
78148;SDS011;67396;42.664;23.382;2023-07-20T02:11:12;11.95;;;2.88;;
78148;SDS011;67396;42.664;23.382;2023-07-20T02:13:37;12.05;;;2.97;;
78148;SDS011;67396;42.664;23.382;2023-07-20T02:16:03;8.75;;;3.10;;
78148;SDS011;67396;42.664;23.382;2023-07-20T02:18:29;14.60;;;5.07;;
78148;SDS011;67396;42.664;23.382;2023-07-20T02:20:54;15.13;;;3.95;;
78148;SDS011;67396;42.664;23.382;2023-07-20T02:23:20;9.88;;;3.17;;
78148;SDS011;67396;42.664;23.382;2023-07-20T02:25:45;12.80;;;3.33;;
78148;SDS011;67396;42.664;23.382;2023-07-20T02:28:13;33.78;;;5.93;;
78148;SDS011;67396;42.664;23.382;2023-07-20T02:30:39;14.55;;;4.03;;
78148;SDS011;67396;42.664;23.382;2023-07-20T02:33:04;15.02;;;3.70;;
78148;SDS011;67396;42.664;23.382;2023-07-20T02:35:31;13.90;;;3.88;;
78148;SDS011;67396;42.664;23.382;2023-07-20T02:37:57;10.18;;;2.97;;
78148;SDS011;67396;42.664;23.382;2023-07-20T02:40:23;9.90;;;3.30;;
78148;SDS011;67396;42.664;23.382;2023-07-20T02:42:48;13.27;;;4.30;;
78148;SDS011;67396;42.664;23.382;2023-07-20T02:45:14;7.95;;;3.85;;
78148;SDS011;67396;42.664;23.382;2023-07-20T02:47:39;10.15;;;3.47;;
78148;SDS011;67396;42.664;23.382;2023-07-20T02:50:06;20.80;;;3.78;;
78148;SDS011;67396;42.664;23.382;2023-07-20T02:52:33;10.07;;;3.78;;
78148;SDS011;67396;42.664;23.382;2023-07-20T02:54:58;10.93;;;3.00;;
78148;SDS011;67396;42.664;23.382;2023-07-20T02:57:24;11.20;;;3.35;;
78148;SDS011;67396;42.664;23.382;2023-07-20T02:59:49;8.13;;;3.33;;
78148;SDS011;67396;42.664;23.382;2023-07-20T03:02:15;11.07;;;3.60;;
78148;SDS011;67396;42.664;23.382;2023-07-20T03:04:40;16.95;;;4.25;;
78148;SDS011;67396;42.664;23.382;2023-07-20T03:07:05;10.98;;;3.22;;
78148;SDS011;67396;42.664;23.382;2023-07-20T03:09:32;11.23;;;3.40;;
78148;SDS011;67396;42.664;23.382;2023-07-20T03:11:57;13.73;;;3.67;;
78148;SDS011;67396;42.664;23.382;2023-07-20T03:14:22;8.35;;;3.17;;
78148;SDS011;67396;42.664;23.382;2023-07-20T03:16:48;10.55;;;4.00;;
78148;SDS011;67396;42.664;23.382;2023-07-20T03:19:14;7.72;;;3.50;;
78148;SDS011;67396;42.664;23.382;2023-07-20T03:21:40;10.98;;;3.05;;
78148;SDS011;67396;42.664;23.382;2023-07-20T03:24:07;8.30;;;2.90;;
78148;SDS011;67396;42.664;23.382;2023-07-20T03:26:36;6.25;;;3.05;;
78148;SDS011;67396;42.664;23.382;2023-07-20T03:29:02;8.10;;;3.53;;
78148;SDS011;67396;42.664;23.382;2023-07-20T03:31:27;15.70;;;4.35;;
78148;SDS011;67396;42.664;23.382;2023-07-20T03:33:53;13.00;;;4.47;;
78148;SDS011;67396;42.664;23.382;2023-07-20T03:36:18;12.00;;;4.38;;
78148;SDS011;67396;42.664;23.382;2023-07-20T03:38:44;10.70;;;3.60;;
78148;SDS011;67396;42.664;23.382;2023-07-20T03:41:10;10.07;;;4.45;;
78148;SDS011;67396;42.664;23.382;2023-07-20T03:43:36;13.93;;;3.55;;
78148;SDS011;67396;42.664;23.382;2023-07-20T03:46:02;11.70;;;3.60;;
78148;SDS011;67396;42.664;23.382;2023-07-20T03:48:32;11.20;;;3.95;;
78148;SDS011;67396;42.664;23.382;2023-07-20T03:50:58;10.88;;;3.60;;
78148;SDS011;67396;42.664;23.382;2023-07-20T03:53:24;7.85;;;3.58;;
78148;SDS011;67396;42.664;23.382;2023-07-20T03:55:49;20.70;;;4.60;;
78148;SDS011;67396;42.664;23.382;2023-07-20T03:58:17;14.93;;;4.10;;
78148;SDS011;67396;42.664;23.382;2023-07-20T04:00:46;12.15;;;4.20;;
78148;SDS011;67396;42.664;23.382;2023-07-20T04:03:16;10.75;;;3.35;;
78148;SDS011;67396;42.664;23.382;2023-07-20T04:05:43;10.07;;;3.53;;
78148;SDS011;67396;42.664;23.382;2023-07-20T04:08:08;10.98;;;4.20;;
78148;SDS011;67396;42.664;23.382;2023-07-20T04:10:36;15.07;;;3.55;;
78148;SDS011;67396;42.664;23.382;2023-07-20T04:13:01;8.77;;;3.78;;
78148;SDS011;67396;42.664;23.382;2023-07-20T04:15:27;9.65;;;3.10;;
78148;SDS011;67396;42.664;23.382;2023-07-20T04:18:11;9.85;;;3.38;;
78148;SDS011;67396;42.664;23.382;2023-07-20T04:20:37;10.52;;;3.45;;
78148;SDS011;67396;42.664;23.382;2023-07-20T04:23:02;15.02;;;3.38;;
78148;SDS011;67396;42.664;23.382;2023-07-20T04:25:28;9.02;;;3.92;;
78148;SDS011;67396;42.664;23.382;2023-07-20T04:27:53;10.27;;;3.75;;
78148;SDS011;67396;42.664;23.382;2023-07-20T04:30:18;8.25;;;3.92;;
78148;SDS011;67396;42.664;23.382;2023-07-20T04:32:45;8.10;;;3.80;;
78148;SDS011;67396;42.664;23.382;2023-07-20T04:35:16;13.27;;;3.85;;
78148;SDS011;67396;42.664;23.382;2023-07-20T04:38:03;13.57;;;3.38;;
78148;SDS011;67396;42.664;23.382;2023-07-20T04:40:28;17.17;;;4.55;;
78148;SDS011;67396;42.664;23.382;2023-07-20T04:42:53;16.88;;;4.60;;
78148;SDS011;67396;42.664;23.382;2023-07-20T04:45:19;15.32;;;4.35;;
78148;SDS011;67396;42.664;23.382;2023-07-20T04:47:44;12.30;;;3.60;;
78148;SDS011;67396;42.664;23.382;2023-07-20T04:50:09;9.85;;;2.95;;
78148;SDS011;67396;42.664;23.382;2023-07-20T04:52:38;11.48;;;4.13;;
78148;SDS011;67396;42.664;23.382;2023-07-20T04:55:03;15.43;;;3.53;;
78148;SDS011;67396;42.664;23.382;2023-07-20T04:57:29;11.85;;;3.72;;
78148;SDS011;67396;42.664;23.382;2023-07-20T04:59:55;12.27;;;3.38;;
78148;SDS011;67396;42.664;23.382;2023-07-20T05:02:20;6.82;;;2.28;;
78148;SDS011;67396;42.664;23.382;2023-07-20T05:04:45;15.57;;;4.55;;
78148;SDS011;67396;42.664;23.382;2023-07-20T05:07:11;10.40;;;4.78;;
78148;SDS011;67396;42.664;23.382;2023-07-20T05:09:36;16.42;;;5.43;;
78148;SDS011;67396;42.664;23.382;2023-07-20T05:12:01;15.57;;;4.97;;
78148;SDS011;67396;42.664;23.382;2023-07-20T05:14:27;10.38;;;4.32;;
78148;SDS011;67396;42.664;23.382;2023-07-20T05:16:52;12.57;;;4.20;;
78148;SDS011;67396;42.664;23.382;2023-07-20T05:19:18;17.70;;;4.95;;
78148;SDS011;67396;42.664;23.382;2023-07-20T05:21:43;14.30;;;5.20;;
78148;SDS011;67396;42.664;23.382;2023-07-20T05:24:09;15.05;;;4.60;;
78148;SDS011;67396;42.664;23.382;2023-07-20T05:26:34;13.40;;;3.70;;
78148;SDS011;67396;42.664;23.382;2023-07-20T05:28:59;12.35;;;4.22;;
78148;SDS011;67396;42.664;23.382;2023-07-20T05:31:25;8.23;;;3.85;;
78148;SDS011;67396;42.664;23.382;2023-07-20T05:33:51;14.55;;;4.72;;
78148;SDS011;67396;42.664;23.382;2023-07-20T05:36:25;21.17;;;6.00;;
78148;SDS011;67396;42.664;23.382;2023-07-20T05:38:50;12.88;;;4.38;;
78148;SDS011;67396;42.664;23.382;2023-07-20T05:41:16;9.85;;;4.43;;
78148;SDS011;67396;42.664;23.382;2023-07-20T05:43:41;10.90;;;4.40;;
78148;SDS011;67396;42.664;23.382;2023-07-20T05:46:07;11.32;;;3.92;;
78148;SDS011;67396;42.664;23.382;2023-07-20T05:48:33;17.40;;;4.32;;
78148;SDS011;67396;42.664;23.382;2023-07-20T05:50:58;11.68;;;4.10;;
78148;SDS011;67396;42.664;23.382;2023-07-20T05:53:23;16.13;;;4.68;;
78148;SDS011;67396;42.664;23.382;2023-07-20T05:55:54;13.05;;;4.53;;
78148;SDS011;67396;42.664;23.382;2023-07-20T05:58:20;12.15;;;4.63;;
78148;SDS011;67396;42.664;23.382;2023-07-20T06:00:49;13.32;;;3.83;;
78148;SDS011;67396;42.664;23.382;2023-07-20T06:03:15;13.18;;;4.13;;
78148;SDS011;67396;42.664;23.382;2023-07-20T06:05:42;12.48;;;4.65;;
78148;SDS011;67396;42.664;23.382;2023-07-20T06:08:07;15.60;;;4.30;;
78148;SDS011;67396;42.664;23.382;2023-07-20T06:10:33;18.10;;;5.68;;
78148;SDS011;67396;42.664;23.382;2023-07-20T06:12:58;13.32;;;4.85;;
78148;SDS011;67396;42.664;23.382;2023-07-20T06:15:24;15.63;;;5.97;;
78148;SDS011;67396;42.664;23.382;2023-07-20T06:17:51;13.38;;;4.70;;
78148;SDS011;67396;42.664;23.382;2023-07-20T06:20:17;11.82;;;3.88;;
78148;SDS011;67396;42.664;23.382;2023-07-20T06:22:43;10.88;;;3.95;;
78148;SDS011;67396;42.664;23.382;2023-07-20T06:25:09;13.88;;;3.72;;
78148;SDS011;67396;42.664;23.382;2023-07-20T06:27:35;7.95;;;3.50;;
78148;SDS011;67396;42.664;23.382;2023-07-20T06:30:01;12.75;;;3.72;;
78148;SDS011;67396;42.664;23.382;2023-07-20T06:32:26;11.18;;;3.33;;
78148;SDS011;67396;42.664;23.382;2023-07-20T06:34:52;7.25;;;2.97;;
78148;SDS011;67396;42.664;23.382;2023-07-20T06:37:17;11.27;;;3.55;;
78148;SDS011;67396;42.664;23.382;2023-07-20T06:39:42;13.43;;;3.75;;
78148;SDS011;67396;42.664;23.382;2023-07-20T06:42:09;14.60;;;4.25;;
78148;SDS011;67396;42.664;23.382;2023-07-20T06:44:35;12.30;;;4.15;;
78148;SDS011;67396;42.664;23.382;2023-07-20T06:47:00;9.93;;;4.53;;
78148;SDS011;67396;42.664;23.382;2023-07-20T06:49:26;12.88;;;3.80;;
78148;SDS011;67396;42.664;23.382;2023-07-20T06:51:52;17.10;;;5.05;;
78148;SDS011;67396;42.664;23.382;2023-07-20T06:54:18;15.80;;;4.60;;
78148;SDS011;67396;42.664;23.382;2023-07-20T06:56:43;13.88;;;4.72;;
78148;SDS011;67396;42.664;23.382;2023-07-20T06:59:08;20.38;;;5.25;;
78148;SDS011;67396;42.664;23.382;2023-07-20T07:01:34;14.50;;;5.60;;
78148;SDS011;67396;42.664;23.382;2023-07-20T07:03:59;20.90;;;5.25;;
78148;SDS011;67396;42.664;23.382;2023-07-20T07:06:25;12.88;;;5.45;;
78148;SDS011;67396;42.664;23.382;2023-07-20T07:08:52;14.63;;;5.40;;
78148;SDS011;67396;42.664;23.382;2023-07-20T07:14:02;10.88;;;4.78;;
78148;SDS011;67396;42.664;23.382;2023-07-20T07:16:27;16.20;;;5.25;;
78148;SDS011;67396;42.664;23.382;2023-07-20T07:18:53;15.45;;;5.25;;
78148;SDS011;67396;42.664;23.382;2023-07-20T07:21:19;14.68;;;5.45;;
78148;SDS011;67396;42.664;23.382;2023-07-20T07:23:45;15.48;;;5.80;;
78148;SDS011;67396;42.664;23.382;2023-07-20T07:26:10;14.75;;;5.85;;
78148;SDS011;67396;42.664;23.382;2023-07-20T07:28:36;15.43;;;6.05;;
78148;SDS011;67396;42.664;23.382;2023-07-20T07:31:05;24.42;;;6.15;;
78148;SDS011;67396;42.664;23.382;2023-07-20T07:33:31;12.05;;;5.40;;
78148;SDS011;67396;42.664;23.382;2023-07-20T07:35:56;15.85;;;5.80;;
78148;SDS011;67396;42.664;23.382;2023-07-20T07:38:22;17.73;;;5.00;;
78148;SDS011;67396;42.664;23.382;2023-07-20T07:40:48;17.55;;;5.07;;
78148;SDS011;67396;42.664;23.382;2023-07-20T07:43:13;10.57;;;4.25;;
78148;SDS011;67396;42.664;23.382;2023-07-20T07:45:39;18.85;;;4.63;;
78148;SDS011;67396;42.664;23.382;2023-07-20T07:48:06;14.82;;;5.75;;
78148;SDS011;67396;42.664;23.382;2023-07-20T07:50:31;9.40;;;4.55;;
78148;SDS011;67396;42.664;23.382;2023-07-20T07:52:57;12.98;;;4.72;;
78148;SDS011;67396;42.664;23.382;2023-07-20T07:55:24;10.00;;;4.22;;
78148;SDS011;67396;42.664;23.382;2023-07-20T07:57:51;19.27;;;4.22;;
78148;SDS011;67396;42.664;23.382;2023-07-20T08:00:17;15.85;;;5.38;;
78148;SDS011;67396;42.664;23.382;2023-07-20T08:02:44;16.15;;;5.35;;
78148;SDS011;67396;42.664;23.382;2023-07-20T08:05:10;20.23;;;5.15;;
78148;SDS011;67396;42.664;23.382;2023-07-20T08:07:38;13.20;;;4.88;;
78148;SDS011;67396;42.664;23.382;2023-07-20T08:10:04;11.73;;;4.30;;
78148;SDS011;67396;42.664;23.382;2023-07-20T08:12:30;11.85;;;4.60;;
78148;SDS011;67396;42.664;23.382;2023-07-20T08:14:56;15.68;;;5.25;;
78148;SDS011;67396;42.664;23.382;2023-07-20T08:17:21;13.05;;;5.75;;
78148;SDS011;67396;42.664;23.382;2023-07-20T08:19:47;15.93;;;5.03;;
78148;SDS011;67396;42.664;23.382;2023-07-20T08:22:15;18.02;;;5.68;;
78148;SDS011;67396;42.664;23.382;2023-07-20T08:24:41;17.65;;;4.75;;
78148;SDS011;67396;42.664;23.382;2023-07-20T08:27:07;16.25;;;4.53;;
78148;SDS011;67396;42.664;23.382;2023-07-20T08:29:33;12.13;;;4.15;;
78148;SDS011;67396;42.664;23.382;2023-07-20T08:31:59;16.48;;;4.50;;
78148;SDS011;67396;42.664;23.382;2023-07-20T08:34:25;18.13;;;5.35;;
78148;SDS011;67396;42.664;23.382;2023-07-20T08:36:50;15.77;;;5.05;;
78148;SDS011;67396;42.664;23.382;2023-07-20T08:39:16;11.00;;;4.43;;
78148;SDS011;67396;42.664;23.382;2023-07-20T08:41:42;25.85;;;4.30;;
78148;SDS011;67396;42.664;23.382;2023-07-20T08:44:08;10.88;;;3.25;;
78148;SDS011;67396;42.664;23.382;2023-07-20T08:46:35;11.27;;;2.95;;
78148;SDS011;67396;42.664;23.382;2023-07-20T08:49:03;10.65;;;2.92;;
78148;SDS011;67396;42.664;23.382;2023-07-20T08:51:30;8.88;;;2.67;;
78148;SDS011;67396;42.664;23.382;2023-07-20T08:53:55;11.90;;;2.85;;
78148;SDS011;67396;42.664;23.382;2023-07-20T08:56:21;6.35;;;2.28;;
78148;SDS011;67396;42.664;23.382;2023-07-20T08:58:49;13.20;;;2.50;;
78148;SDS011;67396;42.664;23.382;2023-07-20T09:01:17;9.13;;;4.32;;
78148;SDS011;67396;42.664;23.382;2023-07-20T09:03:44;14.75;;;3.50;;
78148;SDS011;67396;42.664;23.382;2023-07-20T09:06:11;12.77;;;3.88;;
78148;SDS011;67396;42.664;23.382;2023-07-20T09:08:40;9.05;;;3.45;;
78148;SDS011;67396;42.664;23.382;2023-07-20T09:11:06;14.50;;;4.45;;
78148;SDS011;67396;42.664;23.382;2023-07-20T09:13:32;16.50;;;4.18;;
78148;SDS011;67396;42.664;23.382;2023-07-20T09:15:58;8.38;;;2.78;;
78148;SDS011;67396;42.664;23.382;2023-07-20T09:18:24;9.63;;;3.95;;
78148;SDS011;67396;42.664;23.382;2023-07-20T09:20:51;11.20;;;3.85;;
78148;SDS011;67396;42.664;23.382;2023-07-20T09:23:16;13.27;;;4.07;;
78148;SDS011;67396;42.664;23.382;2023-07-20T09:25:41;12.60;;;3.08;;
78148;SDS011;67396;42.664;23.382;2023-07-20T09:28:07;20.80;;;3.60;;
78148;SDS011;67396;42.664;23.382;2023-07-20T09:30:34;12.93;;;2.53;;
78148;SDS011;67396;42.664;23.382;2023-07-20T09:32:59;12.05;;;2.70;;
78148;SDS011;67396;42.664;23.382;2023-07-20T09:35:25;13.82;;;3.63;;
78148;SDS011;67396;42.664;23.382;2023-07-20T09:37:51;7.63;;;3.33;;
78148;SDS011;67396;42.664;23.382;2023-07-20T09:40:19;8.10;;;2.70;;
78148;SDS011;67396;42.664;23.382;2023-07-20T09:42:46;10.15;;;2.55;;
78148;SDS011;67396;42.664;23.382;2023-07-20T09:45:11;8.43;;;4.05;;
78148;SDS011;67396;42.664;23.382;2023-07-20T09:47:37;13.35;;;3.08;;
78148;SDS011;67396;42.664;23.382;2023-07-20T09:50:03;10.77;;;3.40;;
78148;SDS011;67396;42.664;23.382;2023-07-20T09:52:30;8.25;;;3.08;;
78148;SDS011;67396;42.664;23.382;2023-07-20T09:54:56;8.85;;;2.78;;
78148;SDS011;67396;42.664;23.382;2023-07-20T09:57:22;9.82;;;3.65;;
78148;SDS011;67396;42.664;23.382;2023-07-20T09:59:48;11.77;;;3.05;;
78148;SDS011;67396;42.664;23.382;2023-07-20T10:02:19;8.88;;;2.75;;
78148;SDS011;67396;42.664;23.382;2023-07-20T10:04:49;7.63;;;3.03;;
78148;SDS011;67396;42.664;23.382;2023-07-20T10:07:18;11.05;;;3.05;;
78148;SDS011;67396;42.664;23.382;2023-07-20T10:09:46;5.88;;;2.70;;
78148;SDS011;67396;42.664;23.382;2023-07-20T10:12:15;7.70;;;2.72;;
78148;SDS011;67396;42.664;23.382;2023-07-20T10:14:42;7.15;;;2.78;;
78148;SDS011;67396;42.664;23.382;2023-07-20T10:17:19;11.18;;;4.38;;
78148;SDS011;67396;42.664;23.382;2023-07-20T10:19:47;11.20;;;3.58;;
78148;SDS011;67396;42.664;23.382;2023-07-20T10:22:26;10.32;;;2.92;;
78148;SDS011;67396;42.664;23.382;2023-07-20T10:24:52;14.57;;;3.00;;
78148;SDS011;67396;42.664;23.382;2023-07-20T10:27:22;11.02;;;2.53;;
78148;SDS011;67396;42.664;23.382;2023-07-20T10:29:48;11.10;;;2.83;;
78148;SDS011;67396;42.664;23.382;2023-07-20T10:32:16;8.75;;;2.78;;
78148;SDS011;67396;42.664;23.382;2023-07-20T10:34:42;8.80;;;2.78;;
78148;SDS011;67396;42.664;23.382;2023-07-20T10:37:07;8.75;;;3.17;;
78148;SDS011;67396;42.664;23.382;2023-07-20T10:39:33;5.22;;;2.40;;
78148;SDS011;67396;42.664;23.382;2023-07-20T10:42:08;10.82;;;3.00;;
78148;SDS011;67396;42.664;23.382;2023-07-20T10:44:38;12.43;;;3.30;;
78148;SDS011;67396;42.664;23.382;2023-07-20T10:47:11;11.15;;;3.10;;
78148;SDS011;67396;42.664;23.382;2023-07-20T10:49:57;6.97;;;2.92;;
78148;SDS011;67396;42.664;23.382;2023-07-20T10:52:23;10.50;;;3.13;;
78148;SDS011;67396;42.664;23.382;2023-07-20T10:54:49;7.43;;;2.83;;
78148;SDS011;67396;42.664;23.382;2023-07-20T10:57:21;10.23;;;2.45;;
78148;SDS011;67396;42.664;23.382;2023-07-20T11:00:06;11.68;;;3.28;;
78148;SDS011;67396;42.664;23.382;2023-07-20T11:02:41;11.68;;;3.17;;
78148;SDS011;67396;42.664;23.382;2023-07-20T11:08:11;12.65;;;3.22;;
78148;SDS011;67396;42.664;23.382;2023-07-20T11:10:37;13.98;;;3.00;;
78148;SDS011;67396;42.664;23.382;2023-07-20T11:16:00;7.20;;;2.50;;
78148;SDS011;67396;42.664;23.382;2023-07-20T11:18:28;11.77;;;3.00;;
78148;SDS011;67396;42.664;23.382;2023-07-20T11:20:54;7.63;;;3.10;;
78148;SDS011;67396;42.664;23.382;2023-07-20T11:23:19;10.50;;;3.30;;
78148;SDS011;67396;42.664;23.382;2023-07-20T11:25:45;11.77;;;3.30;;
78148;SDS011;67396;42.664;23.382;2023-07-20T11:28:11;8.00;;;3.08;;
78148;SDS011;67396;42.664;23.382;2023-07-20T11:30:37;7.65;;;3.35;;
78148;SDS011;67396;42.664;23.382;2023-07-20T11:33:08;10.05;;;4.43;;
78148;SDS011;67396;42.664;23.382;2023-07-20T11:35:44;10.38;;;4.50;;
78148;SDS011;67396;42.664;23.382;2023-07-20T11:38:12;14.07;;;4.03;;
78148;SDS011;67396;42.664;23.382;2023-07-20T11:40:41;14.57;;;3.83;;
78148;SDS011;67396;42.664;23.382;2023-07-20T11:43:08;12.73;;;3.65;;
78148;SDS011;67396;42.664;23.382;2023-07-20T11:45:34;12.20;;;4.63;;
78148;SDS011;67396;42.664;23.382;2023-07-20T11:48:00;10.38;;;4.85;;
78148;SDS011;67396;42.664;23.382;2023-07-20T11:50:26;8.20;;;4.47;;
78148;SDS011;67396;42.664;23.382;2023-07-20T11:52:51;9.15;;;4.07;;
78148;SDS011;67396;42.664;23.382;2023-07-20T11:55:16;12.18;;;4.68;;
78148;SDS011;67396;42.664;23.382;2023-07-20T11:58:00;8.45;;;4.47;;
78148;SDS011;67396;42.664;23.382;2023-07-20T12:00:27;9.65;;;4.32;;
78148;SDS011;67396;42.664;23.382;2023-07-20T12:02:53;10.25;;;4.53;;
78148;SDS011;67396;42.664;23.382;2023-07-20T12:05:19;12.55;;;5.18;;
78148;SDS011;67396;42.664;23.382;2023-07-20T12:07:47;13.27;;;5.30;;
78148;SDS011;67396;42.664;23.382;2023-07-20T12:10:12;14.85;;;4.65;;
78148;SDS011;67396;42.664;23.382;2023-07-20T12:12:41;15.52;;;4.53;;
78148;SDS011;67396;42.664;23.382;2023-07-20T12:15:14;12.82;;;4.72;;
78148;SDS011;67396;42.664;23.382;2023-07-20T12:17:55;10.32;;;4.53;;
78148;SDS011;67396;42.664;23.382;2023-07-20T12:20:26;11.18;;;4.45;;
78148;SDS011;67396;42.664;23.382;2023-07-20T12:22:59;9.15;;;4.05;;
78148;SDS011;67396;42.664;23.382;2023-07-20T12:25:43;9.15;;;4.45;;
78148;SDS011;67396;42.664;23.382;2023-07-20T12:28:13;10.45;;;3.97;;
78148;SDS011;67396;42.664;23.382;2023-07-20T12:30:40;8.93;;;3.78;;
78148;SDS011;67396;42.664;23.382;2023-07-20T12:33:06;12.50;;;4.72;;
78148;SDS011;67396;42.664;23.382;2023-07-20T12:35:32;10.80;;;3.30;;
78148;SDS011;67396;42.664;23.382;2023-07-20T12:37:58;8.93;;;3.92;;
78148;SDS011;67396;42.664;23.382;2023-07-20T12:40:24;9.40;;;3.30;;
78148;SDS011;67396;42.664;23.382;2023-07-20T12:42:49;7.47;;;2.88;;
78148;SDS011;67396;42.664;23.382;2023-07-20T12:45:15;8.63;;;3.22;;
78148;SDS011;67396;42.664;23.382;2023-07-20T12:47:40;11.25;;;5.50;;
78148;SDS011;67396;42.664;23.382;2023-07-20T12:50:08;8.80;;;3.90;;
78148;SDS011;67396;42.664;23.382;2023-07-20T12:52:37;10.07;;;3.30;;
78148;SDS011;67396;42.664;23.382;2023-07-20T12:55:04;15.63;;;3.60;;
78148;SDS011;67396;42.664;23.382;2023-07-20T12:57:30;11.52;;;4.13;;
78148;SDS011;67396;42.664;23.382;2023-07-20T12:59:55;12.10;;;3.22;;
78148;SDS011;67396;42.664;23.382;2023-07-20T13:02:21;15.60;;;3.55;;
78148;SDS011;67396;42.664;23.382;2023-07-20T13:04:46;8.85;;;3.40;;
78148;SDS011;67396;42.664;23.382;2023-07-20T13:07:11;9.95;;;3.75;;
78148;SDS011;67396;42.664;23.382;2023-07-20T13:09:37;10.82;;;4.25;;
78148;SDS011;67396;42.664;23.382;2023-07-20T13:12:03;9.20;;;3.47;;
78148;SDS011;67396;42.664;23.382;2023-07-20T13:14:28;6.70;;;3.08;;
78148;SDS011;67396;42.664;23.382;2023-07-20T13:16:55;7.38;;;3.28;;
78148;SDS011;67396;42.664;23.382;2023-07-20T13:19:20;8.25;;;2.85;;
78148;SDS011;67396;42.664;23.382;2023-07-20T13:21:46;10.68;;;3.25;;
78148;SDS011;67396;42.664;23.382;2023-07-20T13:24:12;7.85;;;3.40;;
78148;SDS011;67396;42.664;23.382;2023-07-20T13:26:37;8.85;;;2.80;;
78148;SDS011;67396;42.664;23.382;2023-07-20T13:29:02;10.90;;;3.50;;
78148;SDS011;67396;42.664;23.382;2023-07-20T13:31:28;9.25;;;2.95;;
78148;SDS011;67396;42.664;23.382;2023-07-20T13:33:53;8.88;;;3.08;;
78148;SDS011;67396;42.664;23.382;2023-07-20T13:36:20;10.10;;;3.20;;
78148;SDS011;67396;42.664;23.382;2023-07-20T13:38:46;12.90;;;4.13;;
78148;SDS011;67396;42.664;23.382;2023-07-20T13:41:11;11.80;;;3.53;;
78148;SDS011;67396;42.664;23.382;2023-07-20T13:43:37;12.68;;;3.28;;
78148;SDS011;67396;42.664;23.382;2023-07-20T13:46:02;7.43;;;3.22;;
78148;SDS011;67396;42.664;23.382;2023-07-20T13:48:27;13.18;;;2.80;;
78148;SDS011;67396;42.664;23.382;2023-07-20T13:50:53;8.48;;;3.25;;
78148;SDS011;67396;42.664;23.382;2023-07-20T13:53:19;9.05;;;2.97;;
78148;SDS011;67396;42.664;23.382;2023-07-20T13:55:47;11.70;;;3.05;;
78148;SDS011;67396;42.664;23.382;2023-07-20T13:58:12;7.50;;;3.03;;
78148;SDS011;67396;42.664;23.382;2023-07-20T14:00:38;10.73;;;3.10;;
78148;SDS011;67396;42.664;23.382;2023-07-20T14:03:03;9.90;;;2.55;;
78148;SDS011;67396;42.664;23.382;2023-07-20T14:05:29;18.13;;;3.22;;
78148;SDS011;67396;42.664;23.382;2023-07-20T14:07:54;16.30;;;3.15;;
78148;SDS011;67396;42.664;23.382;2023-07-20T14:10:20;9.98;;;2.15;;
78148;SDS011;67396;42.664;23.382;2023-07-20T14:12:45;11.25;;;2.58;;
78148;SDS011;67396;42.664;23.382;2023-07-20T14:15:11;11.63;;;2.58;;
78148;SDS011;67396;42.664;23.382;2023-07-20T14:17:36;9.82;;;2.72;;
78148;SDS011;67396;42.664;23.382;2023-07-20T14:20:03;12.20;;;2.55;;
78148;SDS011;67396;42.664;23.382;2023-07-20T14:22:31;10.55;;;2.85;;
78148;SDS011;67396;42.664;23.382;2023-07-20T14:24:57;11.32;;;3.03;;
78148;SDS011;67396;42.664;23.382;2023-07-20T14:27:22;7.95;;;3.05;;
78148;SDS011;67396;42.664;23.382;2023-07-20T14:29:47;8.95;;;2.58;;
78148;SDS011;67396;42.664;23.382;2023-07-20T14:32:13;12.50;;;2.67;;
78148;SDS011;67396;42.664;23.382;2023-07-20T14:34:38;11.82;;;3.85;;
78148;SDS011;67396;42.664;23.382;2023-07-20T14:37:05;10.70;;;2.92;;
78148;SDS011;67396;42.664;23.382;2023-07-20T14:39:31;14.68;;;3.78;;
78148;SDS011;67396;42.664;23.382;2023-07-20T14:41:57;9.02;;;2.70;;